Portada
METAR-TAF:

METAR-TAF

Aeroports :

Cairo Regional Airport

Cairo, Illinois, Estats Units d'Amèrica

latitud: 37-03-52N, longitud: 089-13-10W, altitud: 98 m

Observació

L'informe es va fer fa 29 minuts, a les 07:55 UTC
Vent calma
Temperatura 21°C
Humitat 100%
Pressió 1015 hPa
Visibilitat: 8.0 km
Cel clar

METAR: KCIR 060755Z AUTO 00000KT 5SM CLR 21/21 A2996 RMK AO2 T02080208

Hora: 03:24 (08:24 UTC)


TAF: manca

Observacions i pronòstics meteorològics de més de 4000 aeroports (METAR i TAF).

Les estacions disponibles són els punts grocs i vermells al mapa.

Posi el ratolí al punt desitjat per veure el nom de l'estació.

Feu clic per veure les observacions i els pronòstics meteorològics.

Per canviar el mapa: feu clic els botons verds amb una creu de color negre per apropar; al botó verd amb un guió per allunyar la imatge; o en les fletxes verdes per a mapes adjacents.


METAR-TAF: